createdAt,value
2018-09-19T00:00:49.805Z,4.45
2018-09-19T00:03:23.878Z,5.37
2018-09-19T00:05:58.033Z,4.85
2018-09-19T00:08:31.875Z,4.92
2018-09-19T00:11:06.273Z,4.12
2018-09-19T00:13:40.684Z,4.35
2018-09-19T00:16:14.539Z,4.60
2018-09-19T00:18:48.464Z,4.72
2018-09-19T00:21:22.406Z,4.55
2018-09-19T00:23:56.366Z,4.83
2018-09-19T00:26:30.335Z,4.55
2018-09-19T00:29:04.295Z,4.70
2018-09-19T00:31:38.535Z,4.70
2018-09-19T00:34:12.512Z,4.70
2018-09-19T00:36:46.711Z,4.80
2018-09-19T00:39:20.714Z,4.60
2018-09-19T00:41:54.758Z,4.80
2018-09-19T00:44:28.663Z,5.03
2018-09-19T00:47:02.689Z,4.75
2018-09-19T00:49:36.467Z,5.30
2018-09-19T00:52:10.365Z,4.70
2018-09-19T00:54:51.221Z,5.30
2018-09-19T00:57:25.895Z,5.10
2018-09-19T00:59:59.929Z,4.60
2018-09-19T01:02:34.160Z,4.78
2018-09-19T01:05:08.148Z,5.20
2018-09-19T01:07:43.577Z,5.10
2018-09-19T01:10:18.482Z,5.05
2018-09-19T01:12:52.376Z,4.95
2018-09-19T01:15:26.332Z,5.33
2018-09-19T01:18:00.347Z,4.42
2018-09-19T01:20:34.943Z,5.15
2018-09-19T01:23:09.070Z,4.75
2018-09-19T01:25:42.858Z,5.50
2018-09-19T01:28:16.748Z,4.92
2018-09-19T01:30:50.800Z,5.92
2018-09-19T01:33:24.740Z,5.08
2018-09-19T01:35:58.907Z,5.72
2018-09-19T01:38:32.843Z,4.97
2018-09-19T01:41:06.986Z,5.20
2018-09-19T01:43:40.742Z,4.67
2018-09-19T01:46:14.592Z,5.17
2018-09-19T01:48:49.196Z,5.23
2018-09-19T01:51:23.407Z,5.33
2018-09-19T01:53:57.344Z,5.40
2018-09-19T01:56:32.128Z,5.57
2018-09-19T01:59:06.243Z,5.42
2018-09-19T02:01:40.017Z,5.70
2018-09-19T02:04:14.977Z,5.40
2018-09-19T02:06:49.207Z,5.65
2018-09-19T02:09:23.305Z,5.47
2018-09-19T02:11:57.380Z,5.53
2018-09-19T02:14:31.255Z,5.53
2018-09-19T02:17:05.494Z,5.43
2018-09-19T02:19:39.507Z,5.63
2018-09-19T02:22:13.433Z,5.80
2018-09-19T02:24:47.677Z,5.90
2018-09-19T02:27:21.717Z,5.87
2018-09-19T02:29:55.464Z,5.67
2018-09-19T02:32:29.402Z,5.93
2018-09-19T02:35:03.236Z,5.97
2018-09-19T02:37:37.189Z,5.78
2018-09-19T02:40:11.114Z,6.33
2018-09-19T02:42:45.662Z,6.03
2018-09-19T02:45:19.644Z,5.97
2018-09-19T02:47:53.798Z,5.60
2018-09-19T02:50:27.795Z,6.20
2018-09-19T02:53:02.047Z,6.53
2018-09-19T02:55:36.703Z,6.20
2018-09-19T02:58:10.988Z,5.90
2018-09-19T03:00:45.856Z,6.60
2018-09-19T03:03:20.497Z,6.10
2018-09-19T03:05:55.139Z,6.03
2018-09-19T03:08:29.643Z,6.63
2018-09-19T03:11:03.718Z,6.00
2018-09-19T03:13:37.739Z,6.13
2018-09-19T03:16:11.608Z,5.93
2018-09-19T03:18:45.637Z,6.00
2018-09-19T03:21:19.394Z,5.87
2018-09-19T03:23:53.809Z,6.67
2018-09-19T03:26:27.854Z,6.43
2018-09-19T03:29:01.740Z,6.13
2018-09-19T03:31:35.717Z,6.70
2018-09-19T03:34:09.505Z,6.87
2018-09-19T03:36:43.340Z,6.80
2018-09-19T03:39:17.472Z,6.63
2018-09-19T03:41:51.903Z,6.00
2018-09-19T03:44:25.868Z,6.37
2018-09-19T03:47:00.062Z,6.57
2018-09-19T03:49:33.945Z,6.13
2018-09-19T03:52:07.941Z,6.50
2018-09-19T03:54:42.015Z,6.43
2018-09-19T03:57:15.853Z,6.67
2018-09-19T03:59:50.032Z,6.87
2018-09-19T04:02:24.080Z,6.90
2018-09-19T04:04:59.327Z,6.97
2018-09-19T04:07:34.501Z,7.13
2018-09-19T04:10:08.310Z,7.07
2018-09-19T04:12:43.013Z,6.73
2018-09-19T04:15:17.063Z,7.00
2018-09-19T04:17:51.608Z,6.67
2018-09-19T04:20:25.577Z,6.63
2018-09-19T04:22:59.816Z,6.80
2018-09-19T04:25:34.205Z,7.23
2018-09-19T04:28:07.963Z,7.07
2018-09-19T04:30:42.489Z,6.90
2018-09-19T04:33:16.429Z,6.63
2018-09-19T04:35:50.831Z,6.60
2018-09-19T04:38:25.009Z,7.40
2018-09-19T04:40:59.462Z,7.23
2018-09-19T04:43:33.858Z,7.13
2018-09-19T04:46:07.719Z,7.17
2018-09-19T04:48:42.649Z,6.83
2018-09-19T04:51:16.834Z,7.93
2018-09-19T04:53:51.292Z,7.50
2018-09-19T04:56:25.187Z,7.63
2018-09-19T04:59:00.025Z,7.33
2018-09-19T05:01:34.103Z,7.60
2018-09-19T05:04:08.162Z,7.40
2018-09-19T05:06:42.753Z,7.73
2018-09-19T05:09:16.786Z,8.13
2018-09-19T05:11:50.598Z,8.10
2018-09-19T05:14:24.631Z,8.40
2018-09-19T05:16:59.020Z,7.67
2018-09-19T05:19:33.313Z,9.00
2018-09-19T05:22:07.244Z,7.70
2018-09-19T05:24:41.352Z,8.23
2018-09-19T05:27:15.602Z,7.87
2018-09-19T05:29:49.557Z,8.57
2018-09-19T05:32:24.343Z,7.73
2018-09-19T05:34:58.732Z,7.53
2018-09-19T05:37:32.900Z,7.70
2018-09-19T05:40:07.162Z,7.70
2018-09-19T05:42:40.994Z,7.77
2018-09-19T05:45:14.779Z,7.40
2018-09-19T05:47:48.978Z,8.30
2018-09-19T05:50:22.990Z,8.43
2018-09-19T05:52:57.551Z,8.20
2018-09-19T05:55:31.498Z,7.70
2018-09-19T05:58:06.054Z,7.70
2018-09-19T06:00:40.168Z,7.97
2018-09-19T06:03:15.083Z,7.93
2018-09-19T06:05:49.163Z,7.90
2018-09-19T06:08:23.088Z,8.40
2018-09-19T06:10:57.362Z,7.70
2018-09-19T06:13:31.433Z,7.90
2018-09-19T06:16:05.599Z,7.67
2018-09-19T06:18:39.619Z,7.30
2018-09-19T06:21:13.644Z,6.87
2018-09-19T06:23:47.459Z,7.53
2018-09-19T06:26:22.114Z,7.57
2018-09-19T06:28:56.332Z,7.80
2018-09-19T06:31:30.552Z,7.53
2018-09-19T06:34:04.814Z,7.47
2018-09-19T06:36:39.693Z,7.62
2018-09-19T06:39:13.702Z,7.63
2018-09-19T06:41:47.678Z,7.35
2018-09-19T06:44:22.508Z,7.20
2018-09-19T06:46:56.952Z,7.22
2018-09-19T06:49:30.780Z,8.08
2018-09-19T06:52:05.317Z,7.42
2018-09-19T06:54:39.263Z,7.40
2018-09-19T06:57:13.125Z,7.05
2018-09-19T06:59:48.159Z,7.20
2018-09-19T07:02:22.114Z,7.12
2018-09-19T07:04:56.142Z,6.78
2018-09-19T07:07:30.439Z,6.22
2018-09-19T07:10:04.579Z,6.05
2018-09-19T07:12:38.709Z,7.17
2018-09-19T07:15:13.043Z,6.15
2018-09-19T07:17:46.989Z,6.40
2018-09-19T07:20:21.668Z,6.42
2018-09-19T07:22:56.354Z,6.12
2018-09-19T07:25:30.354Z,6.42
2018-09-19T07:28:04.604Z,6.87
2018-09-19T07:30:45.517Z,6.15
2018-09-19T07:33:19.498Z,5.78
2018-09-19T07:35:53.379Z,5.95
2018-09-19T07:38:27.539Z,5.78
2018-09-19T07:41:01.520Z,5.28
2018-09-19T07:43:35.668Z,5.25
2018-09-19T07:46:10.167Z,4.85
2018-09-19T07:48:44.552Z,4.58
2018-09-19T07:51:18.562Z,3.62
2018-09-19T07:53:52.702Z,3.75
2018-09-19T07:56:26.828Z,3.52
2018-09-19T07:59:01.108Z,4.80
2018-09-19T08:01:35.717Z,7.58
2018-09-19T08:04:09.689Z,3.67
2018-09-19T08:06:43.979Z,3.27
2018-09-19T08:09:18.119Z,2.80
2018-09-19T08:11:51.980Z,3.17
2018-09-19T08:14:26.163Z,3.05
2018-09-19T08:17:00.130Z,3.12
2018-09-19T08:19:34.034Z,2.87
2018-09-19T08:22:09.004Z,3.08
2018-09-19T08:24:42.841Z,3.83
2018-09-19T08:27:16.658Z,3.25
2018-09-19T08:29:50.805Z,3.58
2018-09-19T08:32:25.305Z,4.33
2018-09-19T08:34:59.288Z,4.20
2018-09-19T08:37:34.160Z,4.47
2018-09-19T08:40:08.298Z,4.30
2018-09-19T08:42:42.360Z,3.72
2018-09-19T08:45:16.579Z,4.00
2018-09-19T08:47:50.570Z,4.30
2018-09-19T08:50:24.532Z,4.33
2018-09-19T08:52:58.789Z,4.30
2018-09-19T08:55:32.945Z,4.40
2018-09-19T08:58:07.103Z,4.45
2018-09-19T09:00:41.306Z,4.15
2018-09-19T09:03:15.976Z,4.92
2018-09-19T09:05:49.884Z,5.37
2018-09-19T09:08:23.837Z,4.58
2018-09-19T09:10:58.263Z,5.70
2018-09-19T09:13:32.874Z,5.00
2018-09-19T09:16:06.980Z,5.10
2018-09-19T09:18:40.772Z,5.25
2018-09-19T09:21:14.692Z,5.25
2018-09-19T09:23:48.826Z,4.70
2018-09-19T09:26:23.107Z,5.00
2018-09-19T09:28:57.294Z,5.08
2018-09-19T09:31:31.227Z,4.80
2018-09-19T09:34:05.206Z,4.85
2018-09-19T09:36:39.499Z,5.30
2018-09-19T09:39:14.113Z,5.30
2018-09-19T09:41:48.764Z,5.45
2018-09-19T09:44:22.780Z,5.03
2018-09-19T09:46:56.931Z,5.28
2018-09-19T09:49:30.890Z,5.78
2018-09-19T09:52:05.292Z,5.00
2018-09-19T09:54:39.299Z,5.50
2018-09-19T09:57:13.043Z,5.05
2018-09-19T09:59:46.982Z,4.90
2018-09-19T10:02:20.904Z,4.90
2018-09-19T10:04:54.968Z,4.95
2018-09-19T10:07:29.407Z,4.47
2018-09-19T10:10:03.129Z,4.53
2018-09-19T10:12:37.308Z,4.90
2018-09-19T10:15:11.163Z,4.65
2018-09-19T10:17:45.468Z,4.83
2018-09-19T10:20:20.451Z,4.40
2018-09-19T10:22:55.387Z,4.50
2018-09-19T10:25:29.790Z,4.90
2018-09-19T10:28:04.157Z,4.85
2018-09-19T10:30:38.379Z,4.37
2018-09-19T10:33:12.260Z,4.55
2018-09-19T10:35:46.260Z,4.65
2018-09-19T10:38:20.384Z,4.67
2018-09-19T10:40:54.997Z,4.80
2018-09-19T10:43:29.198Z,4.67
2018-09-19T10:46:03.155Z,4.50
2018-09-19T10:48:37.864Z,4.28
2018-09-19T10:51:12.370Z,4.50
2018-09-19T10:53:46.574Z,4.10
2018-09-19T10:56:20.917Z,4.65
2018-09-19T10:59:01.601Z,4.78
2018-09-19T11:01:35.494Z,4.45
2018-09-19T11:04:09.644Z,4.67
2018-09-19T11:06:43.700Z,4.58
2018-09-19T11:09:17.941Z,4.30
2018-09-19T11:11:52.329Z,4.80
2018-09-19T11:14:26.328Z,4.85
2018-09-19T11:17:00.461Z,4.58
2018-09-19T11:19:34.369Z,4.37
2018-09-19T11:22:08.326Z,4.85
2018-09-19T11:24:42.506Z,4.58
2018-09-19T11:27:16.595Z,4.87
2018-09-19T11:29:50.836Z,4.70
2018-09-19T11:32:24.848Z,4.70
2018-09-19T11:34:59.143Z,4.17
2018-09-19T11:37:32.976Z,4.40
2018-09-19T11:40:07.099Z,4.40
2018-09-19T11:42:41.103Z,4.40
2018-09-19T11:45:15.468Z,4.53
2018-09-19T11:47:49.814Z,3.77
2018-09-19T11:50:23.933Z,4.03
2018-09-19T11:52:58.020Z,4.53
2018-09-19T11:55:32.064Z,4.30
2018-09-19T11:58:06.194Z,4.40
2018-09-19T12:00:40.123Z,4.05
2018-09-19T12:03:14.365Z,4.22
2018-09-19T12:05:48.357Z,4.33
2018-09-19T12:08:22.364Z,4.10
2018-09-19T12:10:56.638Z,4.35
2018-09-19T12:13:30.647Z,4.20
2018-09-19T12:16:04.728Z,4.15
2018-09-19T12:18:38.901Z,4.03
2018-09-19T12:21:12.859Z,4.08
2018-09-19T12:23:46.674Z,4.28
2018-09-19T12:26:20.910Z,4.12
2018-09-19T12:28:54.908Z,4.22
2018-09-19T12:31:29.212Z,4.70
2018-09-19T12:34:03.159Z,4.83
2018-09-19T12:36:37.322Z,4.12
2018-09-19T12:39:11.792Z,4.20
2018-09-19T12:41:45.647Z,4.08
2018-09-19T12:44:19.792Z,4.60
2018-09-19T12:46:54.004Z,4.33
2018-09-19T12:49:28.003Z,4.40
2018-09-19T12:52:02.241Z,4.17
2018-09-19T12:54:36.404Z,4.72
2018-09-19T12:57:10.645Z,4.30
2018-09-19T12:59:44.587Z,3.90
2018-09-19T13:02:18.657Z,4.28
2018-09-19T13:04:53.102Z,4.00
2018-09-19T13:07:26.939Z,4.10
2018-09-19T13:10:02.513Z,4.08
2018-09-19T13:12:36.722Z,3.80
2018-09-19T13:15:10.687Z,3.80
2018-09-19T13:17:45.557Z,3.83
2018-09-19T13:20:19.889Z,3.52
2018-09-19T13:22:54.992Z,3.52
2018-09-19T13:25:30.258Z,3.70
2018-09-19T13:28:04.251Z,3.90
2018-09-19T13:30:38.222Z,3.60
2018-09-19T13:33:12.489Z,3.80
2018-09-19T13:35:53.259Z,4.30
2018-09-19T13:38:28.610Z,3.77
2018-09-19T13:41:03.514Z,4.33
2018-09-19T13:43:38.514Z,3.70
2018-09-19T13:46:12.691Z,4.12
2018-09-19T13:48:55.179Z,3.83
2018-09-19T13:51:29.626Z,4.10
2018-09-19T13:54:03.973Z,3.45
2018-09-19T13:56:38.394Z,3.70
2018-09-19T13:59:12.870Z,3.40
2018-09-19T14:01:47.215Z,3.80
2018-09-19T14:04:21.570Z,3.80
2018-09-19T14:06:55.623Z,4.20
2018-09-19T14:09:29.738Z,3.85
2018-09-19T14:12:04.362Z,3.92
2018-09-19T14:14:38.519Z,3.45
2018-09-19T14:17:12.662Z,3.83
2018-09-19T14:19:46.829Z,3.70
2018-09-19T14:22:21.888Z,3.62
2018-09-19T14:24:56.937Z,3.60
2018-09-19T14:27:31.169Z,3.70
2018-09-19T14:30:06.169Z,3.40
2018-09-19T14:32:40.757Z,3.60
2018-09-19T14:35:15.461Z,3.42
2018-09-19T14:37:50.134Z,3.35
2018-09-19T14:40:24.798Z,3.60
2018-09-19T14:43:00.230Z,4.15
2018-09-19T14:45:34.461Z,3.95
2018-09-19T14:48:08.978Z,3.30
2018-09-19T14:50:43.275Z,4.05
2018-09-19T14:53:17.711Z,4.10
2018-09-19T14:55:51.727Z,3.70
2018-09-19T14:58:26.608Z,3.70
2018-09-19T15:01:00.982Z,3.60
2018-09-19T15:03:35.478Z,3.80
2018-09-19T15:06:10.168Z,4.00
2018-09-19T15:08:44.281Z,3.83
2018-09-19T15:11:18.358Z,4.30
2018-09-19T15:13:53.341Z,3.70
2018-09-19T15:16:27.491Z,4.20
2018-09-19T15:19:02.655Z,3.90
2018-09-19T15:21:36.793Z,4.22
2018-09-19T15:24:10.898Z,4.70
2018-09-19T15:26:45.804Z,4.55
2018-09-19T15:29:19.791Z,4.08
2018-09-19T15:31:53.805Z,3.80
2018-09-19T15:34:28.538Z,3.80
2018-09-19T15:37:03.358Z,3.92
2018-09-19T15:39:38.767Z,3.83
2018-09-19T15:42:12.625Z,3.90
2018-09-19T15:44:46.710Z,4.15
2018-09-19T15:47:20.927Z,4.17
2018-09-19T15:49:55.358Z,3.70
2018-09-19T15:52:29.370Z,3.70
2018-09-19T15:55:03.512Z,4.35
2018-09-19T15:57:37.926Z,4.20
2018-09-19T16:00:12.714Z,3.80
2018-09-19T16:02:46.983Z,4.25
2018-09-19T16:05:21.181Z,5.62
2018-09-19T16:07:55.989Z,4.17
2018-09-19T16:10:30.400Z,4.62
2018-09-19T16:13:04.639Z,4.30
2018-09-19T16:15:38.991Z,4.12
2018-09-19T16:18:13.457Z,3.90
2018-09-19T16:20:47.883Z,4.15
2018-09-19T16:23:22.951Z,3.40
2018-09-19T16:25:57.554Z,4.28
2018-09-19T16:28:32.029Z,4.20
2018-09-19T16:31:07.025Z,4.00
2018-09-19T16:33:41.526Z,3.95
2018-09-19T16:36:16.567Z,4.08
2018-09-19T16:38:50.830Z,4.05
2018-09-19T16:41:25.399Z,4.08
2018-09-19T16:44:00.619Z,4.33
2018-09-19T16:46:35.590Z,4.40
2018-09-19T16:49:10.924Z,3.98
2018-09-19T16:51:45.877Z,4.15
2018-09-19T16:54:19.850Z,4.10
2018-09-19T16:56:54.204Z,3.75
2018-09-19T16:59:28.873Z,4.28
2018-09-19T17:02:03.113Z,4.62
2018-09-19T17:04:37.464Z,4.35
2018-09-19T17:07:12.414Z,4.70
2018-09-19T17:09:47.669Z,3.85
2018-09-19T17:12:22.170Z,4.35
2018-09-19T17:14:56.540Z,4.05
2018-09-19T17:17:35.120Z,4.45
2018-09-19T17:20:10.645Z,4.15
2018-09-19T17:22:45.018Z,3.90
2018-09-19T17:25:19.494Z,3.72
2018-09-19T17:27:53.570Z,4.30
2018-09-19T17:30:27.699Z,3.80
2018-09-19T17:33:01.929Z,4.55
2018-09-19T17:35:36.190Z,5.15
2018-09-19T17:38:10.480Z,4.37
2018-09-19T17:40:44.711Z,4.50
2018-09-19T17:43:18.976Z,4.78
2018-09-19T17:45:53.198Z,4.40
2018-09-19T17:48:27.521Z,5.00
2018-09-19T17:51:01.805Z,6.67
2018-09-19T17:53:35.860Z,4.80
2018-09-19T17:56:10.692Z,5.50
2018-09-19T17:58:45.791Z,5.42
2018-09-19T18:01:20.258Z,5.22
2018-09-19T18:03:54.438Z,5.55
2018-09-19T18:06:28.888Z,5.17
2018-09-19T18:09:03.903Z,7.10
2018-09-19T18:11:38.361Z,5.30
2018-09-19T18:14:13.034Z,5.17
2018-09-19T18:16:47.226Z,4.30
2018-09-19T18:19:22.411Z,4.37
2018-09-19T18:21:56.716Z,4.58
2018-09-19T18:24:31.078Z,4.55
2018-09-19T18:27:05.610Z,5.00
2018-09-19T18:29:40.037Z,5.28
2018-09-19T18:32:15.118Z,4.87
2018-09-19T18:34:50.283Z,5.45
2018-09-19T18:37:25.294Z,5.70
2018-09-19T18:40:00.523Z,5.30
2018-09-19T18:42:34.896Z,5.95
2018-09-19T18:45:09.044Z,5.45
2018-09-19T18:47:43.297Z,6.70
2018-09-19T18:50:17.448Z,5.55
2018-09-19T18:52:51.721Z,5.15
2018-09-19T18:55:26.254Z,4.70
2018-09-19T18:58:00.438Z,4.42
2018-09-19T19:00:34.784Z,5.17
2018-09-19T19:03:09.268Z,7.05
2018-09-19T19:05:44.189Z,5.22
2018-09-19T19:08:18.346Z,5.42
2018-09-19T19:10:53.652Z,5.10
2018-09-19T19:13:28.456Z,5.58
2018-09-19T19:16:02.960Z,5.75
2018-09-19T19:18:37.380Z,6.70
2018-09-19T19:21:11.379Z,5.25
2018-09-19T19:23:45.583Z,5.25
2018-09-19T19:26:20.645Z,6.03
2018-09-19T19:28:56.523Z,6.22
2018-09-19T19:31:30.658Z,5.67
2018-09-19T19:34:05.545Z,5.60
2018-09-19T19:36:40.580Z,5.72
2018-09-19T19:39:16.066Z,5.95
2018-09-19T19:41:50.525Z,5.90
2018-09-19T19:44:24.666Z,6.42
2018-09-19T19:46:59.627Z,6.25
2018-09-19T19:49:33.778Z,6.17
2018-09-19T19:52:07.915Z,6.78
2018-09-19T19:54:41.824Z,6.28
2018-09-19T19:57:16.645Z,5.37
2018-09-19T19:59:51.475Z,5.47
2018-09-19T20:02:26.084Z,5.20
2018-09-19T20:05:01.120Z,5.55
2018-09-19T20:07:34.984Z,5.25
2018-09-19T20:10:09.140Z,4.95
2018-09-19T20:12:43.270Z,5.22
2018-09-19T20:15:17.150Z,4.83
2018-09-19T20:17:51.854Z,5.25
2018-09-19T20:20:25.777Z,5.28
2018-09-19T20:22:59.934Z,5.50
2018-09-19T20:25:34.671Z,5.35
2018-09-19T20:28:08.821Z,5.53
2018-09-19T20:30:43.185Z,5.05
2018-09-19T20:33:17.248Z,5.33
2018-09-19T20:38:32.328Z,5.30
2018-09-19T20:41:06.357Z,5.20
2018-09-19T20:43:40.328Z,4.45
2018-09-19T20:46:14.240Z,5.50
2018-09-19T20:48:49.071Z,4.60
2018-09-19T20:51:23.303Z,5.28
2018-09-19T20:53:57.381Z,5.12
2018-09-19T20:56:31.629Z,5.53
2018-09-19T20:59:06.003Z,5.62
2018-09-19T21:01:41.039Z,5.50
2018-09-19T21:04:15.407Z,4.85
2018-09-19T21:06:49.613Z,4.80
2018-09-19T21:09:25.292Z,4.78
2018-09-19T21:11:59.861Z,5.20
2018-09-19T21:14:34.426Z,4.65
2018-09-19T21:17:09.056Z,6.37
2018-09-19T21:19:42.975Z,6.72
2018-09-19T21:22:17.992Z,6.00
2018-09-19T21:24:52.068Z,5.67
2018-09-19T21:27:26.405Z,5.37
2018-09-19T21:30:00.610Z,4.87
2018-09-19T21:32:34.538Z,5.08
2018-09-19T21:35:08.664Z,5.40
2018-09-19T21:37:43.338Z,4.80
2018-09-19T21:40:17.358Z,5.00
2018-09-19T21:42:51.454Z,5.17
2018-09-19T21:45:25.607Z,5.20
2018-09-19T21:47:59.928Z,5.55
2018-09-19T21:50:34.109Z,4.90
2018-09-19T21:53:08.274Z,4.78
2018-09-19T21:55:43.219Z,5.28
2018-09-19T21:58:17.444Z,5.05
2018-09-19T22:00:57.168Z,4.90
2018-09-19T22:03:39.586Z,5.20
2018-09-19T22:06:14.040Z,5.08
2018-09-19T22:08:48.255Z,5.45
2018-09-19T22:11:22.218Z,5.15
2018-09-19T22:13:56.540Z,5.17
2018-09-19T22:16:30.588Z,5.25
2018-09-19T22:19:04.916Z,5.47
2018-09-19T22:21:39.297Z,5.42
2018-09-19T22:24:13.428Z,5.50
2018-09-19T22:26:47.519Z,6.05
2018-09-19T22:29:22.493Z,5.60
2018-09-19T22:32:00.185Z,6.17
2018-09-19T22:34:35.082Z,5.72
2018-09-19T22:37:09.119Z,5.80
2018-09-19T22:39:43.533Z,5.85
2018-09-19T22:42:18.301Z,5.92
2018-09-19T22:44:52.407Z,5.62
2018-09-19T22:47:26.742Z,5.80
2018-09-19T22:50:00.888Z,5.70
2018-09-19T22:52:35.488Z,5.70
2018-09-19T22:55:09.804Z,5.65
2018-09-19T22:57:44.341Z,5.50
2018-09-19T23:00:18.242Z,5.35
2018-09-19T23:02:52.357Z,5.50
2018-09-19T23:05:26.473Z,5.60
2018-09-19T23:08:00.471Z,6.10
2018-09-19T23:10:34.959Z,5.40
2018-09-19T23:13:09.383Z,5.90
2018-09-19T23:15:43.717Z,5.42
2018-09-19T23:18:18.572Z,6.55
2018-09-19T23:20:52.922Z,5.83
2018-09-19T23:23:27.722Z,5.62
2018-09-19T23:26:01.867Z,6.20
2018-09-19T23:28:35.949Z,5.90
2018-09-19T23:31:10.761Z,8.23
2018-09-19T23:33:45.505Z,7.50
2018-09-19T23:36:19.505Z,7.30
2018-09-19T23:38:54.352Z,7.22
2018-09-19T23:41:29.108Z,6.58
2018-09-19T23:44:02.991Z,6.97
2018-09-19T23:46:38.141Z,6.33
2018-09-19T23:49:12.883Z,5.75
2018-09-19T23:51:47.358Z,5.92
2018-09-19T23:54:21.459Z,5.55
2018-09-19T23:56:55.448Z,6.97
2018-09-19T23:59:29.451Z,6.55
